createdAt,value
2018-09-05T00:00:17.179Z,95.2
2018-09-05T00:01:17.168Z,95.2
2018-09-05T00:02:16.454Z,95.2
2018-09-05T00:03:16.729Z,95.1
2018-09-05T00:04:16.999Z,95.0
2018-09-05T00:05:16.279Z,95.0
2018-09-05T00:06:16.549Z,95.0
2018-09-05T00:07:16.818Z,95.0
2018-09-05T00:08:17.092Z,95.0
2018-09-05T00:09:16.353Z,95.0
2018-09-05T00:10:16.636Z,95.0
2018-09-05T00:11:16.679Z,94.9
2018-09-05T00:12:16.948Z,94.8
2018-09-05T00:13:17.331Z,94.8
2018-09-05T00:14:16.762Z,94.9
2018-09-05T00:15:17.094Z,95.0
2018-09-05T00:16:16.364Z,95.0
2018-09-05T00:17:16.646Z,94.9
2018-09-05T00:18:16.907Z,95.0
2018-09-05T00:19:17.169Z,95.0
2018-09-05T00:20:16.457Z,95.0
2018-09-05T00:21:16.478Z,95.1
2018-09-05T00:22:16.758Z,95.2
2018-09-05T00:23:17.025Z,95.2
2018-09-05T00:24:16.290Z,95.3
2018-09-05T00:25:16.565Z,95.4
2018-09-05T00:26:16.827Z,95.5
2018-09-05T00:27:17.113Z,95.5
2018-09-05T00:28:16.380Z,95.5
2018-09-05T00:29:16.960Z,95.5
2018-09-05T00:30:17.231Z,95.5
2018-09-05T00:31:16.326Z,95.6
2018-09-05T00:32:16.593Z,95.0
2018-09-05T00:33:16.869Z,95.0
2018-09-05T00:34:17.139Z,95.0
2018-09-05T00:35:16.418Z,95.0
2018-09-05T00:36:16.684Z,95.1
2018-09-05T00:37:16.948Z,95.0
2018-09-05T00:38:17.436Z,95.1
2018-09-05T00:39:16.706Z,95.2
2018-09-05T00:40:16.996Z,95.0
2018-09-05T00:41:17.035Z,95.0
2018-09-05T00:42:16.313Z,95.0
2018-09-05T00:43:16.594Z,95.2
2018-09-05T00:44:16.875Z,95.2
2018-09-05T00:45:17.164Z,95.3
2018-09-05T00:46:16.448Z,95.3
2018-09-05T00:47:16.714Z,95.1
2018-09-05T00:48:16.996Z,95.0
2018-09-05T00:49:16.269Z,95.0
2018-09-05T00:50:16.542Z,95.0
2018-09-05T00:51:16.593Z,95.0
2018-09-05T00:52:16.857Z,95.0
2018-09-05T00:53:17.121Z,95.1
2018-09-05T00:54:16.712Z,95.1
2018-09-05T00:55:16.978Z,95.2
2018-09-05T00:56:17.255Z,95.3
2018-09-05T00:57:16.528Z,95.5
2018-09-05T00:58:16.801Z,95.3
2018-09-05T00:59:17.077Z,95.2
2018-09-05T01:00:16.359Z,95.0
2018-09-05T01:01:16.384Z,95.0
2018-09-05T01:02:16.659Z,95.0
2018-09-05T01:03:16.930Z,95.0
2018-09-05T01:04:17.197Z,95.2
2018-09-05T01:05:16.477Z,95.2
2018-09-05T01:06:16.752Z,95.2
2018-09-05T01:07:17.028Z,95.3
2018-09-05T01:08:16.289Z,95.3
2018-09-05T01:09:16.562Z,95.4
2018-09-05T01:10:16.848Z,95.3
2018-09-05T01:11:16.893Z,95.2
2018-09-05T01:12:17.164Z,95.0
2018-09-05T01:13:16.437Z,95.0
2018-09-05T01:14:16.701Z,95.0
2018-09-05T01:15:16.973Z,95.0
2018-09-05T01:16:17.249Z,95.0
2018-09-05T01:17:16.513Z,95.0
2018-09-05T01:18:16.793Z,95.0
2018-09-05T01:19:17.065Z,95.0
2018-09-05T01:20:16.332Z,95.0
2018-09-05T01:21:16.390Z,95.0
2018-09-05T01:22:16.663Z,95.0
2018-09-05T01:23:16.937Z,95.1
2018-09-05T01:24:17.321Z,95.2
2018-09-05T01:25:16.595Z,95.2
2018-09-05T01:26:16.874Z,95.3
2018-09-05T01:27:17.160Z,95.4
2018-09-05T01:28:16.425Z,95.5
2018-09-05T01:29:16.682Z,95.5
2018-09-05T01:30:16.957Z,95.5
2018-09-05T01:31:17.011Z,95.5
2018-09-05T01:32:16.276Z,95.4
2018-09-05T01:33:16.570Z,95.5
2018-09-05T01:34:16.838Z,95.5
2018-09-05T01:35:17.108Z,95.5
2018-09-05T01:36:16.372Z,95.5
2018-09-05T01:37:16.632Z,95.5
2018-09-05T01:38:16.907Z,95.5
2018-09-05T01:39:17.185Z,95.5
2018-09-05T01:40:16.482Z,95.8
2018-09-05T01:41:16.524Z,95.7
2018-09-05T01:42:16.792Z,95.6
2018-09-05T01:43:17.060Z,95.7
2018-09-05T01:44:16.329Z,95.7
2018-09-05T01:45:16.660Z,95.7
2018-09-05T01:46:16.932Z,95.8
2018-09-05T01:47:17.200Z,95.8
2018-09-05T01:48:16.498Z,95.9
2018-09-05T01:49:16.777Z,95.9
2018-09-05T01:50:17.072Z,96.0
2018-09-05T01:51:17.438Z,96.0
2018-09-05T01:52:16.699Z,96.0
2018-09-05T01:53:16.963Z,96.0
2018-09-05T01:54:17.235Z,96.0
2018-09-05T01:55:16.506Z,96.0
2018-09-05T01:56:16.766Z,96.0
2018-09-05T01:57:17.026Z,95.8
2018-09-05T01:58:16.301Z,95.8
2018-09-05T01:59:16.581Z,95.8
2018-09-05T02:00:16.864Z,95.8
2018-09-05T02:01:16.900Z,95.8
2018-09-05T02:02:17.671Z,95.9
2018-09-05T02:03:16.938Z,95.9
2018-09-05T02:04:17.213Z,95.9
2018-09-05T02:05:16.480Z,95.7
2018-09-05T02:06:16.741Z,95.6
2018-09-05T02:07:17.029Z,95.6
2018-09-05T02:08:16.358Z,95.5
2018-09-05T02:09:16.683Z,95.5
2018-09-05T02:10:16.958Z,95.5
2018-09-05T02:11:17.011Z,95.7
2018-09-05T02:12:16.284Z,95.7
2018-09-05T02:13:16.558Z,95.7
2018-09-05T02:14:16.819Z,95.7
2018-09-05T02:15:17.097Z,95.7
2018-09-05T02:16:16.364Z,95.7
2018-09-05T02:17:16.642Z,95.7
2018-09-05T02:18:16.905Z,95.7
2018-09-05T02:19:17.165Z,95.8
2018-09-05T02:20:16.445Z,95.8
2018-09-05T02:21:16.492Z,95.8
2018-09-05T02:22:16.772Z,95.8
2018-09-05T02:23:17.043Z,95.8
2018-09-05T02:24:16.305Z,96.0
2018-09-05T02:25:16.586Z,95.9
2018-09-05T02:26:16.845Z,95.8
2018-09-05T02:27:17.126Z,95.5
2018-09-05T02:28:16.391Z,95.2
2018-09-05T02:29:16.652Z,95.2
2018-09-05T02:30:16.943Z,95.2
2018-09-05T02:31:16.971Z,95.2
2018-09-05T02:32:17.250Z,95.2
2018-09-05T02:33:16.523Z,95.2
2018-09-05T02:34:16.815Z,95.3
2018-09-05T02:35:17.080Z,95.4
2018-09-05T02:36:16.344Z,95.5
2018-09-05T02:37:16.614Z,95.5
2018-09-05T02:38:16.894Z,95.5
2018-09-05T02:39:17.189Z,95.6
2018-09-05T02:40:16.518Z,95.7
2018-09-05T02:41:16.501Z,95.7
2018-09-05T02:42:16.769Z,95.8
2018-09-05T02:43:17.038Z,95.8
2018-09-05T02:44:16.302Z,95.8
2018-09-05T02:45:16.571Z,95.8
2018-09-05T02:46:16.838Z,95.8
2018-09-05T02:47:17.141Z,95.8
2018-09-05T02:48:16.405Z,95.8
2018-09-05T02:49:16.680Z,95.8
2018-09-05T02:50:16.964Z,96.0
2018-09-05T02:51:16.996Z,96.1
2018-09-05T02:52:16.275Z,96.2
2018-09-05T02:53:16.552Z,96.3
2018-09-05T02:54:16.819Z,96.4
2018-09-05T02:55:17.083Z,96.3
2018-09-05T02:56:16.354Z,96.4
2018-09-05T02:57:16.633Z,96.5
2018-09-05T02:58:16.901Z,96.5
2018-09-05T02:59:17.182Z,96.5
2018-09-05T03:00:15.835Z,96.6
2018-09-05T03:01:16.864Z,96.7
2018-09-05T03:02:17.141Z,96.7
2018-09-05T03:03:16.421Z,96.7
2018-09-05T03:04:16.688Z,96.7
2018-09-05T03:05:16.965Z,96.7
2018-09-05T03:06:17.247Z,96.7
2018-09-05T03:07:16.527Z,96.6
2018-09-05T03:08:16.809Z,96.6
2018-09-05T03:09:17.164Z,96.6
2018-09-05T03:10:16.446Z,96.7
2018-09-05T03:11:16.522Z,96.7
2018-09-05T03:12:16.803Z,96.7
2018-09-05T03:13:17.064Z,96.7
2018-09-05T03:14:16.341Z,96.8
2018-09-05T03:15:16.615Z,96.8
2018-09-05T03:16:16.891Z,96.7
2018-09-05T03:17:17.165Z,96.7
2018-09-05T03:18:16.458Z,96.7
2018-09-05T03:19:16.726Z,96.6
2018-09-05T03:20:17.004Z,96.5
2018-09-05T03:21:17.040Z,96.5
2018-09-05T03:22:16.317Z,96.5
2018-09-05T03:23:16.591Z,96.7
2018-09-05T03:24:16.864Z,96.5
2018-09-05T03:25:17.141Z,96.3
2018-09-05T03:26:16.404Z,96.4
2018-09-05T03:27:16.665Z,96.5
2018-09-05T03:28:16.935Z,96.5
2018-09-05T03:29:17.200Z,96.6
2018-09-05T03:30:16.510Z,96.8
2018-09-05T03:31:16.573Z,96.8
2018-09-05T03:32:16.972Z,96.8
2018-09-05T03:33:16.324Z,97.0
2018-09-05T03:34:16.605Z,96.8
2018-09-05T03:35:16.873Z,96.8
2018-09-05T03:36:17.464Z,96.8
2018-09-05T03:37:16.738Z,96.8
2018-09-05T03:38:16.999Z,96.9
2018-09-05T03:39:16.267Z,96.9
2018-09-05T03:40:16.546Z,97.0
2018-09-05T03:41:16.606Z,97.0
2018-09-05T03:42:16.887Z,97.0
2018-09-05T03:43:17.161Z,97.0
2018-09-05T03:44:16.431Z,97.0
2018-09-05T03:45:16.720Z,97.0
2018-09-05T03:46:17.090Z,97.0
2018-09-05T03:47:16.362Z,97.0
2018-09-05T03:48:16.639Z,97.0
2018-09-05T03:49:16.911Z,97.1
2018-09-05T03:50:17.189Z,97.2
2018-09-05T03:51:17.267Z,97.2
2018-09-05T03:52:16.536Z,97.2
2018-09-05T03:53:16.806Z,97.2
2018-09-05T03:54:17.092Z,97.2
2018-09-05T03:55:16.365Z,97.3
2018-09-05T03:56:16.649Z,97.3
2018-09-05T03:57:16.930Z,97.2
2018-09-05T03:58:17.201Z,97.2
2018-09-05T03:59:16.475Z,97.2
2018-09-05T04:00:16.756Z,97.2
2018-09-05T04:01:16.817Z,97.2
2018-09-05T04:02:17.090Z,97.2
2018-09-05T04:03:16.357Z,97.2
2018-09-05T04:04:16.630Z,97.2
2018-09-05T04:05:16.896Z,97.2
2018-09-05T04:06:17.169Z,97.2
2018-09-05T04:07:16.438Z,97.2
2018-09-05T04:08:16.706Z,97.2
2018-09-05T04:09:16.981Z,97.2
2018-09-05T04:10:17.291Z,97.3
2018-09-05T04:11:16.304Z,97.3
2018-09-05T04:12:16.762Z,97.3
2018-09-05T04:13:17.116Z,97.3
2018-09-05T04:14:16.383Z,97.4
2018-09-05T04:15:16.660Z,97.4
2018-09-05T04:16:16.926Z,97.4
2018-09-05T04:17:17.200Z,97.4
2018-09-05T04:18:16.781Z,97.4
2018-09-05T04:19:17.045Z,97.4
2018-09-05T04:20:16.329Z,97.4
2018-09-05T04:21:16.361Z,97.3
2018-09-05T04:22:16.632Z,97.4
2018-09-05T04:23:16.903Z,97.3
2018-09-05T04:24:17.178Z,97.4
2018-09-05T04:25:16.461Z,97.4
2018-09-05T04:26:16.741Z,97.5
2018-09-05T04:27:17.024Z,97.5
2018-09-05T04:28:16.283Z,97.5
2018-09-05T04:29:16.624Z,97.5
2018-09-05T04:30:16.948Z,97.5
2018-09-05T04:31:16.936Z,97.5
2018-09-05T04:32:17.206Z,97.6
2018-09-05T04:33:16.477Z,97.7
2018-09-05T04:34:16.742Z,97.7
2018-09-05T04:35:17.001Z,97.8
2018-09-05T04:36:16.265Z,97.8
2018-09-05T04:37:16.548Z,97.8
2018-09-05T04:38:16.825Z,97.8
2018-09-05T04:39:17.101Z,97.8
2018-09-05T04:40:16.380Z,97.8
2018-09-05T04:41:16.427Z,97.8
2018-09-05T04:42:16.694Z,97.8
2018-09-05T04:43:16.970Z,97.8
2018-09-05T04:44:17.246Z,97.8
2018-09-05T04:45:16.781Z,97.8
2018-09-05T04:46:17.078Z,97.8
2018-09-05T04:47:16.353Z,97.8
2018-09-05T04:48:16.624Z,97.8
2018-09-05T04:49:16.881Z,97.8
2018-09-05T04:50:17.159Z,97.8
2018-09-05T04:51:17.207Z,97.8
2018-09-05T04:52:16.492Z,97.8
2018-09-05T04:53:16.758Z,97.8
2018-09-05T04:54:17.024Z,97.8
2018-09-05T04:55:16.316Z,97.8
2018-09-05T04:56:16.589Z,97.7
2018-09-05T04:57:16.864Z,97.7
2018-09-05T04:58:17.228Z,97.7
2018-09-05T04:59:16.497Z,97.7
2018-09-05T05:00:16.779Z,97.6
2018-09-05T05:01:16.809Z,97.6
2018-09-05T05:02:17.076Z,97.6
2018-09-05T05:03:16.343Z,97.5
2018-09-05T05:04:16.639Z,97.5
2018-09-05T05:05:16.913Z,97.5
2018-09-05T05:06:17.180Z,97.5
2018-09-05T05:07:16.453Z,97.5
2018-09-05T05:08:16.724Z,97.5
2018-09-05T05:09:17.005Z,97.5
2018-09-05T05:10:16.281Z,97.5
2018-09-05T05:11:16.327Z,97.5
2018-09-05T05:12:16.606Z,97.5
2018-09-05T05:13:16.881Z,97.5
2018-09-05T05:14:17.488Z,97.5
2018-09-05T05:15:16.765Z,97.5
2018-09-05T05:16:17.042Z,97.5
2018-09-05T05:17:16.317Z,97.5
2018-09-05T05:18:16.592Z,97.4
2018-09-05T05:19:16.869Z,97.3
2018-09-05T05:20:17.149Z,97.3
2018-09-05T05:21:17.189Z,97.3
2018-09-05T05:22:16.457Z,97.4
2018-09-05T05:23:16.723Z,97.4
2018-09-05T05:24:17.001Z,97.3
2018-09-05T05:25:16.267Z,97.3
2018-09-05T05:26:16.538Z,97.4
2018-09-05T05:27:16.818Z,97.4
2018-09-05T05:28:17.087Z,97.4
2018-09-05T05:29:16.374Z,97.4
2018-09-05T05:30:16.652Z,97.5
2018-09-05T05:31:16.690Z,97.3
2018-09-05T05:32:16.961Z,97.3
2018-09-05T05:33:17.225Z,97.3
2018-09-05T05:34:16.493Z,97.3
2018-09-05T05:35:16.790Z,97.3
2018-09-05T05:36:17.084Z,97.3
2018-09-05T05:37:16.356Z,97.2
2018-09-05T05:38:16.643Z,97.2
2018-09-05T05:39:16.904Z,97.2
2018-09-05T05:40:17.391Z,97.0
2018-09-05T05:41:17.221Z,97.0
2018-09-05T05:42:16.490Z,97.0
2018-09-05T05:43:16.767Z,97.0
2018-09-05T05:44:17.208Z,97.0
2018-09-05T05:45:16.481Z,97.0
2018-09-05T05:46:16.753Z,96.9
2018-09-05T05:47:17.021Z,97.0
2018-09-05T05:48:16.284Z,96.8
2018-09-05T05:49:16.553Z,96.8
2018-09-05T05:50:16.837Z,96.8
2018-09-05T05:51:16.912Z,96.8
2018-09-05T05:52:17.188Z,96.8
2018-09-05T05:53:16.454Z,96.8
2018-09-05T05:54:16.730Z,96.8
2018-09-05T05:55:17.010Z,96.8
2018-09-05T05:56:16.277Z,96.9
2018-09-05T05:57:16.554Z,96.8
2018-09-05T05:58:16.831Z,96.8
2018-09-05T05:59:17.105Z,96.8
2018-09-05T06:00:16.398Z,96.8
2018-09-05T06:01:16.655Z,96.8
2018-09-05T06:02:17.005Z,96.8
2018-09-05T06:03:16.259Z,96.8
2018-09-05T06:04:16.545Z,96.8
2018-09-05T06:05:16.826Z,96.8
2018-09-05T06:06:17.480Z,96.8
2018-09-05T06:07:16.849Z,96.8
2018-09-05T06:08:17.118Z,96.8
2018-09-05T06:09:16.396Z,96.7
2018-09-05T06:10:16.686Z,96.7
2018-09-05T06:11:16.718Z,96.5
2018-09-05T06:12:16.999Z,96.5
2018-09-05T06:13:16.264Z,96.5
2018-09-05T06:14:16.521Z,96.2
2018-09-05T06:15:16.803Z,96.2
2018-09-05T06:16:17.121Z,96.2
2018-09-05T06:17:16.388Z,96.0
2018-09-05T06:18:16.652Z,96.0
2018-09-05T06:19:16.918Z,95.8
2018-09-05T06:20:17.216Z,95.7
2018-09-05T06:21:17.244Z,95.5
2018-09-05T06:22:16.510Z,95.4
2018-09-05T06:23:16.790Z,95.4
2018-09-05T06:24:17.060Z,95.5
2018-09-05T06:25:16.330Z,95.5
2018-09-05T06:26:16.605Z,95.7
2018-09-05T06:27:16.881Z,95.7
2018-09-05T06:28:17.139Z,95.5
2018-09-05T06:29:16.412Z,95.3
2018-09-05T06:30:16.793Z,95.0
2018-09-05T06:31:17.199Z,95.1
2018-09-05T06:32:16.721Z,95.2
2018-09-05T06:33:16.995Z,95.3
2018-09-05T06:34:16.398Z,95.2
2018-09-05T06:35:16.685Z,95.2
2018-09-05T06:36:16.947Z,95.2
2018-09-05T06:37:17.217Z,95.2
2018-09-05T06:38:16.493Z,95.0
2018-09-05T06:39:16.757Z,94.6
2018-09-05T06:40:17.051Z,94.5
2018-09-05T06:41:17.072Z,94.4
2018-09-05T06:42:16.341Z,93.9
2018-09-05T06:43:16.611Z,93.8
2018-09-05T06:44:16.876Z,93.8
2018-09-05T06:45:17.260Z,93.6
2018-09-05T06:46:16.537Z,93.5
2018-09-05T06:47:16.825Z,93.5
2018-09-05T06:48:17.097Z,93.8
2018-09-05T06:49:16.362Z,93.8
2018-09-05T06:50:16.641Z,93.8
2018-09-05T06:51:16.748Z,93.4
2018-09-05T06:52:17.032Z,93.3
2018-09-05T06:53:16.310Z,93.2
2018-09-05T06:54:16.584Z,92.7
2018-09-05T06:55:16.856Z,92.7
2018-09-05T06:56:17.127Z,92.9
2018-09-05T06:57:16.407Z,93.0
2018-09-05T06:58:16.909Z,92.8
2018-09-05T06:59:17.199Z,92.5
2018-09-05T07:00:16.481Z,92.3
2018-09-05T07:01:16.511Z,92.2
2018-09-05T07:02:16.779Z,92.3
2018-09-05T07:03:17.045Z,92.0
2018-09-05T07:04:16.314Z,92.2
2018-09-05T07:05:16.593Z,92.3
2018-09-05T07:06:16.860Z,92.2
2018-09-05T07:07:17.157Z,92.2
2018-09-05T07:08:16.424Z,92.1
2018-09-05T07:09:16.695Z,91.9
2018-09-05T07:10:16.969Z,91.5
2018-09-05T07:11:17.035Z,91.5
2018-09-05T07:12:16.316Z,91.5
2018-09-05T07:13:16.595Z,91.5
2018-09-05T07:14:17.070Z,91.2
2018-09-05T07:15:16.428Z,90.5
2018-09-05T07:16:16.697Z,90.2
2018-09-05T07:17:16.962Z,90.2
2018-09-05T07:18:17.222Z,90.2
2018-09-05T07:19:16.525Z,90.0
2018-09-05T07:20:16.823Z,89.8
2018-09-05T07:21:17.072Z,89.6
2018-09-05T07:22:16.362Z,89.3
2018-09-05T07:23:16.628Z,88.9
2018-09-05T07:24:16.948Z,89.7
2018-09-05T07:25:17.225Z,89.4
2018-09-05T07:26:16.489Z,88.8
2018-09-05T07:27:16.757Z,88.5
2018-09-05T07:28:17.021Z,87.6
2018-09-05T07:29:16.286Z,87.5
2018-09-05T07:30:16.627Z,85.5
2018-09-05T07:31:16.621Z,85.4
2018-09-05T07:32:16.900Z,85.4
2018-09-05T07:33:17.177Z,85.3
2018-09-05T07:34:16.441Z,84.0
2018-09-05T07:35:16.708Z,84.4
2018-09-05T07:36:16.983Z,83.0
2018-09-05T07:37:17.539Z,82.7
2018-09-05T07:38:16.824Z,83.0
2018-09-05T07:39:17.105Z,81.5
2018-09-05T07:40:16.381Z,81.8
2018-09-05T07:41:16.433Z,82.1
2018-09-05T07:42:16.703Z,81.5
2018-09-05T07:43:16.994Z,81.2
2018-09-05T07:44:16.263Z,80.7
2018-09-05T07:45:16.530Z,79.1
2018-09-05T07:46:16.799Z,78.3
2018-09-05T07:47:17.068Z,78.3
2018-09-05T07:48:16.336Z,78.8
2018-09-05T07:49:16.614Z,78.8
2018-09-05T07:50:16.879Z,78.0
2018-09-05T07:51:16.918Z,77.4
2018-09-05T07:52:17.181Z,77.7
2018-09-05T07:53:16.445Z,76.4
2018-09-05T07:54:16.716Z,76.0
2018-09-05T07:55:16.987Z,75.2
2018-09-05T07:56:17.255Z,76.1
2018-09-05T07:57:16.638Z,75.7
2018-09-05T07:58:16.932Z,75.3
2018-09-05T07:59:17.227Z,74.8
2018-09-05T08:00:16.530Z,74.7
2018-09-05T08:01:16.580Z,73.6
2018-09-05T08:02:16.854Z,74.2
2018-09-05T08:03:17.125Z,74.0
2018-09-05T08:04:16.399Z,73.6
2018-09-05T08:05:16.685Z,73.5
2018-09-05T08:06:16.954Z,72.8
2018-09-05T08:07:17.226Z,72.8
2018-09-05T08:08:16.508Z,72.6
2018-09-05T08:09:16.779Z,72.0
2018-09-05T08:10:17.070Z,72.5
2018-09-05T08:11:17.100Z,71.7
2018-09-05T08:12:16.372Z,71.0
2018-09-05T08:13:16.643Z,70.8
2018-09-05T08:14:16.910Z,70.2
2018-09-05T08:15:17.190Z,69.7
2018-09-05T08:16:16.459Z,70.2
2018-09-05T08:17:16.737Z,72.2
2018-09-05T08:18:17.047Z,71.4
2018-09-05T08:19:16.316Z,71.0
2018-09-05T08:20:16.601Z,69.4
2018-09-05T08:21:16.635Z,68.8
2018-09-05T08:22:16.908Z,68.8
2018-09-05T08:23:17.216Z,69.2
2018-09-05T08:24:16.812Z,68.2
2018-09-05T08:25:17.106Z,67.3
2018-09-05T08:26:16.388Z,67.4
2018-09-05T08:27:16.647Z,69.3
2018-09-05T08:28:16.922Z,68.2
2018-09-05T08:29:17.429Z,67.7
2018-09-05T08:30:16.737Z,66.6
2018-09-05T08:31:16.771Z,66.7
2018-09-05T08:32:17.040Z,66.7
2018-09-05T08:33:16.321Z,66.5
2018-09-05T08:34:16.592Z,66.3
2018-09-05T08:35:17.504Z,66.3
2018-09-05T08:36:18.151Z,65.8
2018-09-05T08:37:17.630Z,65.2
2018-09-05T08:38:17.350Z,64.8
2018-09-05T08:39:16.713Z,65.3
2018-09-05T08:40:16.987Z,66.6
2018-09-05T08:41:17.322Z,66.0
2018-09-05T08:42:16.793Z,65.7
2018-09-05T08:43:17.131Z,64.7
2018-09-05T08:44:16.669Z,63.9
2018-09-05T08:45:17.723Z,63.3
2018-09-05T08:46:17.397Z,62.6
2018-09-05T08:47:16.980Z,63.0
2018-09-05T08:48:16.529Z,63.2
2018-09-05T08:49:16.888Z,63.4
2018-09-05T08:50:17.160Z,63.2
2018-09-05T08:51:17.212Z,61.3
2018-09-05T08:52:16.492Z,62.0
2018-09-05T08:53:16.783Z,61.3
2018-09-05T08:54:17.064Z,61.7
2018-09-05T08:55:16.521Z,61.0
2018-09-05T08:56:17.095Z,61.0
2018-09-05T08:57:16.424Z,61.8
2018-09-05T08:58:16.692Z,61.9
2018-09-05T08:59:16.963Z,61.4
2018-09-05T09:00:17.255Z,60.8
2018-09-05T09:01:16.326Z,59.7
2018-09-05T09:02:16.582Z,59.9
2018-09-05T09:03:16.844Z,60.5
2018-09-05T09:04:17.113Z,60.1
2018-09-05T09:05:16.391Z,60.6
2018-09-05T09:06:16.660Z,60.0
2018-09-05T09:07:16.933Z,59.5
2018-09-05T09:08:17.212Z,60.9
2018-09-05T09:09:16.481Z,60.8
2018-09-05T09:10:16.752Z,61.5
2018-09-05T09:11:16.793Z,60.8
2018-09-05T09:12:17.059Z,59.6
2018-09-05T09:13:16.331Z,59.4
2018-09-05T09:14:16.612Z,59.5
2018-09-05T09:15:16.911Z,59.2
2018-09-05T09:16:17.195Z,57.9
2018-09-05T09:17:16.472Z,58.7
2018-09-05T09:18:16.744Z,58.2
2018-09-05T09:19:17.011Z,57.0
2018-09-05T09:20:16.296Z,57.1
2018-09-05T09:21:16.333Z,57.4
2018-09-05T09:22:16.603Z,57.0
2018-09-05T09:23:16.876Z,56.4
2018-09-05T09:24:17.162Z,56.4
2018-09-05T09:25:16.463Z,57.2
2018-09-05T09:26:16.740Z,57.4
2018-09-05T09:27:17.010Z,58.1
2018-09-05T09:28:16.361Z,55.9
2018-09-05T09:29:16.708Z,55.9
2018-09-05T09:30:16.997Z,56.0
2018-09-05T09:31:17.031Z,56.0
2018-09-05T09:32:16.292Z,56.8
2018-09-05T09:33:16.566Z,56.8
2018-09-05T09:34:16.837Z,56.7
2018-09-05T09:35:17.235Z,55.8
2018-09-05T09:36:16.525Z,55.5
2018-09-05T09:37:16.790Z,55.1
2018-09-05T09:38:17.069Z,54.3
2018-09-05T09:39:16.339Z,54.9
2018-09-05T09:40:16.620Z,54.7
2018-09-05T09:41:16.668Z,55.3
2018-09-05T09:42:16.945Z,55.2
2018-09-05T09:43:17.210Z,55.0
2018-09-05T09:44:16.478Z,55.3
2018-09-05T09:45:16.757Z,54.2
2018-09-05T09:46:17.018Z,54.1
2018-09-05T09:47:16.292Z,55.9
2018-09-05T09:48:16.575Z,57.4
2018-09-05T09:49:16.844Z,56.3
2018-09-05T09:50:17.124Z,55.4
2018-09-05T09:51:17.174Z,55.3
2018-09-05T09:52:16.515Z,54.3
2018-09-05T09:53:16.784Z,54.4
2018-09-05T09:54:17.063Z,54.5
2018-09-05T09:55:16.350Z,54.5
2018-09-05T09:56:16.619Z,54.8
2018-09-05T09:57:16.884Z,55.1
2018-09-05T09:58:17.148Z,57.2
2018-09-05T09:59:16.419Z,56.4
2018-09-05T10:00:16.707Z,55.5
2018-09-05T10:01:16.751Z,54.4
2018-09-05T10:02:17.029Z,54.2
2018-09-05T10:03:16.408Z,54.1
2018-09-05T10:04:16.688Z,53.5
2018-09-05T10:05:16.958Z,53.1
2018-09-05T10:06:17.228Z,52.9
2018-09-05T10:07:16.612Z,53.7
2018-09-05T10:08:16.893Z,55.7
2018-09-05T10:09:17.160Z,55.4
2018-09-05T10:10:17.020Z,55.8
2018-09-05T10:11:16.486Z,54.9
2018-09-05T10:12:16.750Z,55.3
2018-09-05T10:13:17.029Z,55.2
2018-09-05T10:14:16.287Z,54.4
2018-09-05T10:15:16.578Z,54.5
2018-09-05T10:16:16.844Z,55.2
2018-09-05T10:17:17.133Z,55.2
2018-09-05T10:18:16.412Z,54.5
2018-09-05T10:19:16.673Z,54.8
2018-09-05T10:20:16.958Z,54.6
2018-09-05T10:21:16.992Z,53.5
2018-09-05T10:22:16.272Z,53.8
2018-09-05T10:23:16.564Z,53.5
2018-09-05T10:24:16.836Z,50.8
2018-09-05T10:25:17.111Z,50.1
2018-09-05T10:26:16.376Z,51.0
2018-09-05T10:27:16.645Z,51.7
2018-09-05T10:28:16.913Z,49.2
2018-09-05T10:29:17.185Z,49.2
2018-09-05T10:30:16.463Z,47.8
2018-09-05T10:31:16.506Z,47.8
2018-09-05T10:32:16.774Z,47.3
2018-09-05T10:33:17.039Z,48.5
2018-09-05T10:34:16.317Z,47.8
2018-09-05T10:35:16.586Z,46.8
2018-09-05T10:36:16.859Z,47.4
2018-09-05T10:37:17.132Z,47.4
2018-09-05T10:38:16.405Z,47.0
2018-09-05T10:39:16.679Z,47.5
2018-09-05T10:40:16.957Z,47.3
2018-09-05T10:41:16.997Z,47.1
2018-09-05T10:42:16.265Z,46.0
2018-09-05T10:43:16.536Z,46.5
2018-09-05T10:44:16.971Z,46.7
2018-09-05T10:45:16.313Z,46.6
2018-09-05T10:46:16.589Z,45.8
2018-09-05T10:47:16.865Z,45.4
2018-09-05T10:48:17.140Z,45.5
2018-09-05T10:49:16.417Z,46.4
2018-09-05T10:50:16.698Z,45.5
2018-09-05T10:51:16.733Z,44.5
2018-09-05T10:52:17.006Z,44.4
2018-09-05T10:53:16.271Z,44.6
2018-09-05T10:54:16.550Z,45.3
2018-09-05T10:55:16.813Z,44.2
2018-09-05T10:56:17.079Z,43.8
2018-09-05T10:57:16.347Z,43.8
2018-09-05T10:58:16.968Z,44.8
2018-09-05T10:59:16.274Z,45.0
2018-09-05T11:00:16.558Z,44.3
2018-09-05T11:01:16.609Z,44.0
2018-09-05T11:02:16.882Z,42.9
2018-09-05T11:03:17.166Z,44.4
2018-09-05T11:04:16.635Z,44.4
2018-09-05T11:05:16.931Z,44.5
2018-09-05T11:06:17.210Z,47.0
2018-09-05T11:07:16.498Z,45.7
2018-09-05T11:08:16.782Z,44.8
2018-09-05T11:09:17.088Z,44.7
2018-09-05T11:10:16.419Z,42.8
2018-09-05T11:11:16.412Z,41.6
2018-09-05T11:12:16.680Z,42.0
2018-09-05T11:13:16.940Z,41.4
2018-09-05T11:14:17.397Z,41.4
2018-09-05T11:15:16.688Z,41.5
2018-09-05T11:16:16.957Z,42.4
2018-09-05T11:17:17.234Z,41.2
2018-09-05T11:18:16.521Z,40.0
2018-09-05T11:19:16.784Z,41.3
2018-09-05T11:20:17.480Z,42.0
2018-09-05T11:21:17.267Z,41.0
2018-09-05T11:22:16.537Z,41.6
2018-09-05T11:23:16.807Z,42.4
2018-09-05T11:24:17.082Z,42.8
2018-09-05T11:25:16.362Z,43.4
2018-09-05T11:26:16.630Z,43.4
2018-09-05T11:27:16.917Z,43.5
2018-09-05T11:28:17.182Z,43.7
2018-09-05T11:29:16.458Z,45.2
2018-09-05T11:30:16.745Z,44.4
2018-09-05T11:31:16.771Z,44.9
2018-09-05T11:32:17.041Z,45.2
2018-09-05T11:33:16.318Z,46.2
2018-09-05T11:34:16.591Z,45.0
2018-09-05T11:35:17.294Z,45.5
2018-09-05T11:36:16.570Z,44.4
2018-09-05T11:37:16.838Z,43.6
2018-09-05T11:38:17.105Z,43.4
2018-09-05T11:39:16.432Z,44.7
2018-09-05T11:40:16.720Z,44.9
2018-09-05T11:41:16.759Z,44.8
2018-09-05T11:42:17.026Z,44.6
2018-09-05T11:43:16.293Z,45.5
2018-09-05T11:44:16.569Z,44.7
2018-09-05T11:45:16.838Z,44.6
2018-09-05T11:46:17.095Z,45.8
2018-09-05T11:47:16.368Z,46.1
2018-09-05T11:48:16.630Z,45.0
2018-09-05T11:49:16.898Z,45.6
2018-09-05T11:50:17.349Z,46.0
2018-09-05T11:51:17.244Z,45.6
2018-09-05T11:52:16.521Z,46.4
2018-09-05T11:53:16.789Z,46.2
2018-09-05T11:54:17.054Z,47.2
2018-09-05T11:55:16.361Z,47.0
2018-09-05T11:56:16.640Z,45.9
2018-09-05T11:57:17.028Z,46.5
2018-09-05T11:58:16.295Z,46.4
2018-09-05T11:59:16.569Z,48.1
2018-09-05T12:00:16.841Z,46.2
2018-09-05T12:01:16.897Z,47.0
2018-09-05T12:02:17.348Z,46.8
2018-09-05T12:03:16.696Z,46.5
2018-09-05T12:04:16.962Z,46.7
2018-09-05T12:05:17.256Z,47.3
2018-09-05T12:06:16.526Z,46.8
2018-09-05T12:07:16.802Z,48.3
2018-09-05T12:08:17.066Z,47.8
2018-09-05T12:09:16.340Z,47.9
2018-09-05T12:10:16.612Z,46.8
2018-09-05T12:11:16.665Z,47.0
2018-09-05T12:12:17.138Z,46.6
2018-09-05T12:13:16.498Z,46.2
2018-09-05T12:14:16.771Z,46.6
2018-09-05T12:15:17.074Z,47.3
2018-09-05T12:16:16.344Z,47.8
2018-09-05T12:17:16.617Z,47.0
2018-09-05T12:18:16.880Z,46.8
2018-09-05T12:19:17.155Z,47.5
2018-09-05T12:20:16.439Z,48.6
2018-09-05T12:21:16.485Z,48.5
2018-09-05T12:22:16.752Z,49.1
2018-09-05T12:23:17.019Z,49.2
2018-09-05T12:24:16.291Z,50.4
2018-09-05T12:25:16.582Z,48.8
2018-09-05T12:26:16.866Z,49.1
2018-09-05T12:27:17.142Z,49.8
2018-09-05T12:28:16.418Z,48.2
2018-09-05T12:29:16.686Z,47.2
2018-09-05T12:30:16.962Z,47.2
2018-09-05T12:31:17.024Z,47.2
2018-09-05T12:32:16.296Z,47.5
2018-09-05T12:33:16.559Z,48.5
2018-09-05T12:34:16.832Z,47.5
2018-09-05T12:35:17.107Z,47.3
2018-09-05T12:36:16.373Z,47.0
2018-09-05T12:37:16.644Z,47.5
2018-09-05T12:38:17.030Z,47.5
2018-09-05T12:39:16.314Z,47.6
2018-09-05T12:40:16.598Z,48.2
2018-09-05T12:41:16.632Z,48.5
2018-09-05T12:42:16.915Z,48.0
2018-09-05T12:43:17.184Z,47.0
2018-09-05T12:44:16.456Z,47.1
2018-09-05T12:45:16.717Z,47.1
2018-09-05T12:46:16.990Z,47.6
2018-09-05T12:47:17.259Z,48.8
2018-09-05T12:48:16.537Z,46.1
2018-09-05T12:49:16.821Z,46.2
2018-09-05T12:50:17.107Z,46.4
2018-09-05T12:51:17.150Z,47.0
2018-09-05T12:52:16.422Z,47.8
2018-09-05T12:53:16.697Z,46.7
2018-09-05T12:54:16.974Z,47.8
2018-09-05T12:55:17.244Z,47.4
2018-09-05T12:56:16.512Z,47.1
2018-09-05T12:57:16.812Z,48.3
2018-09-05T12:58:17.077Z,47.7
2018-09-05T12:59:16.475Z,47.2
2018-09-05T13:00:16.811Z,46.8
2018-09-05T13:01:16.875Z,48.5
2018-09-05T13:02:17.146Z,47.5
2018-09-05T13:03:16.416Z,46.9
2018-09-05T13:04:16.682Z,46.5
2018-09-05T13:05:16.959Z,46.8
2018-09-05T13:06:17.217Z,46.6
2018-09-05T13:07:16.490Z,47.0
2018-09-05T13:08:16.759Z,47.0
2018-09-05T13:09:17.054Z,46.3
2018-09-05T13:10:16.332Z,46.7
2018-09-05T13:11:16.427Z,46.7
2018-09-05T13:12:16.703Z,49.5
2018-09-05T13:13:16.961Z,46.0
2018-09-05T13:14:17.233Z,46.1
2018-09-05T13:15:16.516Z,46.1
2018-09-05T13:16:16.783Z,47.1
2018-09-05T13:17:17.059Z,47.2
2018-09-05T13:18:16.326Z,47.9